createdAt,value
2022-08-16T00:04:46.973Z,20.23
2022-08-16T00:10:31.278Z,20.28
2022-08-16T00:17:05.839Z,20.22
2022-08-16T00:19:05.800Z,20.13
2022-08-16T00:24:44.729Z,20.03
2022-08-16T00:30:28.757Z,19.86
2022-08-16T00:36:07.547Z,19.88
2022-08-16T00:41:46.677Z,19.70
2022-08-16T00:47:22.303Z,19.64
2022-08-16T00:50:11.409Z,19.65
2022-08-16T00:55:47.313Z,19.71
2022-08-16T01:01:23.581Z,19.62
2022-08-16T01:09:50.180Z,19.60
2022-08-16T01:15:30.220Z,19.56
2022-08-16T01:21:05.628Z,19.46
2022-08-16T01:29:41.675Z,19.37
2022-08-16T01:35:17.111Z,19.28
2022-08-16T01:40:53.070Z,19.29
2022-08-16T01:46:39.661Z,19.19
2022-08-16T01:49:23.045Z,19.15
2022-08-16T01:54:59.416Z,19.19
2022-08-16T02:03:26.688Z,19.13
2022-08-16T02:09:02.073Z,19.09
2022-08-16T02:14:40.997Z,19.07
2022-08-16T02:20:17.974Z,18.97
2022-08-16T02:32:03.453Z,18.90
2022-08-16T02:37:20.966Z,18.84
2022-08-16T02:40:05.849Z,18.83
2022-08-16T02:45:43.857Z,18.72
2022-08-16T02:51:19.164Z,18.74
2022-08-16T02:56:58.729Z,18.70
2022-08-16T02:59:44.200Z,18.72
2022-08-16T03:08:31.027Z,18.65
2022-08-16T03:11:16.464Z,18.60
2022-08-16T03:16:59.117Z,18.60
2022-08-16T03:19:59.646Z,18.60
2022-08-16T03:25:41.127Z,18.45
2022-08-16T03:31:16.112Z,18.52
2022-08-16T03:36:52.390Z,18.51
2022-08-16T03:39:42.809Z,18.49
2022-08-16T03:45:25.759Z,18.43
2022-08-16T03:54:00.954Z,18.47
2022-08-16T03:59:36.720Z,18.37
2022-08-16T04:05:12.057Z,18.38
2022-08-16T04:10:47.399Z,18.35
2022-08-16T04:16:28.257Z,18.40
2022-08-16T04:19:14.943Z,18.44
2022-08-16T04:24:54.119Z,18.49
2022-08-16T04:30:35.122Z,18.57
2022-08-16T04:36:20.243Z,18.61
2022-08-16T04:39:07.876Z,18.68
2022-08-16T04:44:54.345Z,18.66
2022-08-16T04:50:30.337Z,18.67
2022-08-16T04:56:11.610Z,18.70
2022-08-16T05:01:58.662Z,18.85
2022-08-16T05:07:37.526Z,18.98
2022-08-16T05:10:32.156Z,19.05
2022-08-16T05:16:20.128Z,19.13
2022-08-16T05:19:05.331Z,19.20
2022-08-16T05:27:42.983Z,19.42
2022-08-16T05:30:35.763Z,19.51
2022-08-16T05:39:06.751Z,19.79
2022-08-16T05:44:44.922Z,19.81
2022-08-16T05:50:34.251Z,19.99
2022-08-16T05:56:12.438Z,20.14
2022-08-16T05:59:08.057Z,20.27
2022-08-16T06:04:44.916Z,20.43
2022-08-16T06:10:31.881Z,20.62
2022-08-16T06:16:18.370Z,20.80
2022-08-16T06:19:09.207Z,20.85
2022-08-16T06:24:55.681Z,20.98
2022-08-16T06:30:36.143Z,21.12
2022-08-16T06:36:23.671Z,21.29
2022-08-16T06:39:08.437Z,21.37
2022-08-16T06:44:44.985Z,21.48
2022-08-16T06:50:31.818Z,21.60
2022-08-16T06:56:14.718Z,21.78
2022-08-16T07:01:55.066Z,21.96
2022-08-16T07:07:34.576Z,22.15
2022-08-16T07:10:26.729Z,22.25
2022-08-16T07:16:06.505Z,22.40
2022-08-16T07:21:59.084Z,22.51
2022-08-16T07:27:37.243Z,22.66
2022-08-16T07:30:46.101Z,22.74
2022-08-16T07:36:09.608Z,22.88
2022-08-16T07:41:46.652Z,23.12
2022-08-16T07:47:24.458Z,23.31
2022-08-16T07:50:57.729Z,23.40
2022-08-16T07:55:55.921Z,23.53
2022-08-16T08:01:33.452Z,23.76
2022-08-16T08:07:09.929Z,23.83
2022-08-16T08:15:37.882Z,23.94
2022-08-16T08:21:27.184Z,24.04
2022-08-16T08:24:18.974Z,24.12
2022-08-16T08:30:49.508Z,24.34
2022-08-16T08:38:45.199Z,24.65
2022-08-16T08:41:30.522Z,24.72
2022-08-16T08:44:28.929Z,24.72
2022-08-16T08:50:05.080Z,24.86
2022-08-16T08:58:34.481Z,25.10
2022-08-16T09:01:31.934Z,25.11
2022-08-16T09:07:07.806Z,25.26
2022-08-16T09:10:06.139Z,25.37
2022-08-16T09:18:35.717Z,25.60
2022-08-16T09:21:31.275Z,25.62
2022-08-16T09:27:08.785Z,25.92
2022-08-16T09:30:00.168Z,25.88
2022-08-16T09:35:38.685Z,26.19
2022-08-16T09:41:16.787Z,26.14
2022-08-16T09:46:57.619Z,26.38
2022-08-16T09:49:43.469Z,26.40
2022-08-16T09:55:27.789Z,26.43
2022-08-16T10:01:08.458Z,26.67
2022-08-16T10:06:46.237Z,26.89
2022-08-16T10:09:45.115Z,27.16
2022-08-16T10:15:19.561Z,27.30
2022-08-16T10:23:53.617Z,27.10
2022-08-16T10:32:21.202Z,27.30
2022-08-16T10:37:57.077Z,27.01
2022-08-16T10:40:45.600Z,26.83
2022-08-16T10:46:39.303Z,27.09
2022-08-16T10:49:16.690Z,27.46
2022-08-16T10:54:59.938Z,27.99
2022-08-16T11:00:38.989Z,28.16
2022-08-16T11:06:14.476Z,28.18
2022-08-16T11:12:14.759Z,28.39
2022-08-16T11:17:36.261Z,28.78
2022-08-16T11:20:41.891Z,28.79
2022-08-16T11:26:23.929Z,28.76
2022-08-16T11:31:54.035Z,28.18
2022-08-16T11:38:04.606Z,28.43
2022-08-16T11:40:32.566Z,28.45
2022-08-16T11:46:43.054Z,28.06
2022-08-16T11:51:52.772Z,28.05
2022-08-16T11:57:29.029Z,28.26
2022-08-16T12:00:33.891Z,28.43
2022-08-16T12:05:57.953Z,29.04
2022-08-16T12:11:33.362Z,29.23
2022-08-16T12:17:10.686Z,28.87
2022-08-16T12:19:55.222Z,29.11
2022-08-16T12:25:32.196Z,28.99
2022-08-16T12:31:10.454Z,29.07
2022-08-16T12:36:47.298Z,29.34
2022-08-16T12:45:13.410Z,29.07
2022-08-16T12:50:51.218Z,30.21
2022-08-16T12:56:28.819Z,31.63
2022-08-16T13:02:06.017Z,33.48
2022-08-16T13:07:51.757Z,33.83
2022-08-16T13:10:37.715Z,33.63
2022-08-16T13:16:20.805Z,34.44
2022-08-16T13:22:00.874Z,32.68
2022-08-16T13:28:02.033Z,30.95
2022-08-16T13:30:36.879Z,30.33
2022-08-16T13:36:32.130Z,30.02
2022-08-16T13:41:57.818Z,29.95
2022-08-16T13:47:33.144Z,35.99
2022-08-16T13:50:18.142Z,37.49
2022-08-16T13:56:02.469Z,38.13
2022-08-16T14:01:38.735Z,38.16
2022-08-16T14:07:20.040Z,35.79
2022-08-16T14:10:08.678Z,33.62
2022-08-16T14:15:44.119Z,38.19
2022-08-16T14:21:19.500Z,36.18
2022-08-16T14:26:59.428Z,37.47
2022-08-16T14:29:44.125Z,38.70
2022-08-16T14:35:19.296Z,34.32
2022-08-16T14:40:55.130Z,33.17
2022-08-16T14:46:31.072Z,33.02
2022-08-16T14:52:06.796Z,38.81
2022-08-16T14:57:42.438Z,42.60
2022-08-16T15:00:33.919Z,43.16
2022-08-16T15:06:16.357Z,42.49
2022-08-16T15:11:51.970Z,42.98
2022-08-16T15:17:33.917Z,42.62
2022-08-16T15:20:26.296Z,43.56
2022-08-16T15:26:03.891Z,43.68
2022-08-16T15:31:39.555Z,44.02
2022-08-16T15:37:16.630Z,44.32
2022-08-16T15:40:01.228Z,45.60
2022-08-16T15:45:36.671Z,44.77
2022-08-16T15:51:12.356Z,43.64
2022-08-16T15:56:47.963Z,45.54
2022-08-16T15:59:34.735Z,46.36
2022-08-16T16:05:17.980Z,40.43
2022-08-16T16:10:54.937Z,36.35
2022-08-16T16:16:30.270Z,35.69
2022-08-16T16:22:05.609Z,35.30
2022-08-16T16:27:43.068Z,33.85
2022-08-16T16:30:37.169Z,33.80
2022-08-16T16:36:12.928Z,33.02
2022-08-16T16:41:49.047Z,32.60
2022-08-16T16:47:25.048Z,31.86
2022-08-16T16:50:09.534Z,31.91
2022-08-16T16:55:47.671Z,31.64
2022-08-16T17:01:41.225Z,31.27
2022-08-16T17:07:13.630Z,30.79
2022-08-16T17:10:02.068Z,30.63
2022-08-16T17:15:37.309Z,30.67
2022-08-16T17:24:03.377Z,30.00
2022-08-16T17:29:51.486Z,29.82
2022-08-16T17:35:33.688Z,29.71
2022-08-16T17:41:09.773Z,29.43
2022-08-16T17:46:51.007Z,29.38
2022-08-16T17:49:40.621Z,29.21
2022-08-16T17:55:19.350Z,29.00
2022-08-16T18:04:07.480Z,28.79
2022-08-16T18:09:33.094Z,28.66
2022-08-16T18:15:22.391Z,28.45
2022-08-16T18:18:09.291Z,28.28
2022-08-16T18:20:55.949Z,28.20
2022-08-16T18:26:31.357Z,27.74
2022-08-16T18:32:07.642Z,27.63
2022-08-16T18:34:54.240Z,27.48
2022-08-16T18:40:30.289Z,26.89
2022-08-16T18:46:05.870Z,26.86
2022-08-16T18:51:41.346Z,26.65
2022-08-16T18:57:17.910Z,26.43
2022-08-16T19:00:02.498Z,26.37
2022-08-16T19:05:38.363Z,26.09
2022-08-16T19:11:13.683Z,25.69
2022-08-16T19:16:48.908Z,25.42
2022-08-16T19:22:34.999Z,25.37
2022-08-16T19:28:08.450Z,25.39
2022-08-16T19:33:54.312Z,25.09
2022-08-16T19:39:32.700Z,24.93
2022-08-16T19:48:01.508Z,24.84
2022-08-16T19:50:49.611Z,24.81
2022-08-16T19:56:25.027Z,24.68
2022-08-16T20:02:00.406Z,24.54
2022-08-16T20:07:35.699Z,24.40
2022-08-16T20:10:20.181Z,24.37
2022-08-16T20:15:55.540Z,24.26
2022-08-16T20:21:31.148Z,24.03
2022-08-16T20:27:06.545Z,23.93
2022-08-16T20:29:51.134Z,23.83
2022-08-16T20:35:26.431Z,23.64
2022-08-16T20:43:55.038Z,23.43
2022-08-16T20:49:30.687Z,23.47
2022-08-16T20:55:06.063Z,23.34
2022-08-16T21:00:41.546Z,23.36
2022-08-16T21:06:16.926Z,23.06
2022-08-16T21:09:02.453Z,22.98
2022-08-16T21:11:46.969Z,22.97
2022-08-16T21:17:23.024Z,22.94
2022-08-16T21:20:08.568Z,22.98
2022-08-16T21:25:57.995Z,22.78
2022-08-16T21:31:28.462Z,22.74
2022-08-16T21:37:03.766Z,22.66
2022-08-16T21:39:48.331Z,22.48
2022-08-16T21:45:23.885Z,22.48
2022-08-16T21:51:01.099Z,22.19
2022-08-16T21:56:38.582Z,22.20
2022-08-16T21:59:23.120Z,21.95
2022-08-16T22:02:08.814Z,21.74
2022-08-16T22:07:44.174Z,21.62
2022-08-16T22:11:04.505Z,21.71
2022-08-16T22:16:13.098Z,21.77
2022-08-16T22:21:48.960Z,21.75
2022-08-16T22:27:24.435Z,21.74
2022-08-16T22:30:08.954Z,21.76
2022-08-16T22:35:44.269Z,21.69
2022-08-16T22:41:22.041Z,21.58
2022-08-16T22:46:57.409Z,21.50
2022-08-16T22:49:41.849Z,21.37
2022-08-16T22:55:17.264Z,21.40
2022-08-16T23:00:53.601Z,21.31
2022-08-16T23:03:39.386Z,21.29
2022-08-16T23:09:14.668Z,21.36
2022-08-16T23:11:59.164Z,21.32
2022-08-16T23:17:34.620Z,21.33
2022-08-16T23:20:19.198Z,21.34
2022-08-16T23:25:55.233Z,21.20
2022-08-16T23:31:30.705Z,21.05
2022-08-16T23:37:06.295Z,20.89
2022-08-16T23:39:54.553Z,20.83
2022-08-16T23:48:20.878Z,20.74
2022-08-16T23:51:05.470Z,20.74
2022-08-16T23:56:41.781Z,20.74
2022-08-16T23:59:26.322Z,20.47
